Promitheas — SYIJ — position and weather

sailwx.info

Track history (hours):
 
Tides and Currents Weather Stations Pressure Air Temp Water Temp Dewpoint Dewpoint Depression Visibility Wind Speed Wind Dir Waves Ship Positions

Promitheas

Last reported at 2017-Apr-25 05:44 UTC. Time now 2017-Apr-26 04:09 UTC.
Position N 60°20' E 028°02'.

Length 249 m; draft 8.8 m.

Type: Tanker. MMSI: 240547000.

Date/timePositionNaut miles runAvg speedWind from/ knotsBaromVisibWave heightAir tempDewpointWater temp
2017-Apr-25 05:44N 60°20' E 028°02'0 0.0
2017-Apr-25 05:14N 60°20' E 028°02'0 0.0
2017-Apr-25 04:59N 60°20' E 028°02'0 0.0
2017-Apr-25 04:29N 60°20' E 028°02'0 0.0
2017-Apr-25 03:59N 60°20' E 028°02'0 0.0
2017-Apr-25 03:29N 60°20' E 028°02'0 0.0
2017-Apr-25 02:59N 60°20' E 028°02'0 0.0
2017-Apr-25 02:02N 60°20' E 028°02'0 0.0
2017-Apr-25 01:59N 60°20' E 028°02'0 0.0
2017-Apr-25 01:20N 60°20' E 028°02'0 0.0
2017-Apr-25 00:59N 60°20' E 028°02'0 0.0
2017-Apr-25 00:20N 60°20' E 028°02'0 0.0
2017-Apr-24 21:53N 60°20' E 028°02'0 0.1
2017-Apr-24 21:08N 60°20' E 028°02'0 0.0
2017-Apr-24 20:50N 60°20' E 028°02'0 0.0
2017-Apr-24 20:23N 60°20' E 028°02'0 0.0
2017-Apr-24 19:50N 60°20' E 028°02'0 0.0
2017-Apr-24 19:26N 60°20' E 028°02'0 0.0
2017-Apr-24 18:56N 60°20' E 028°02'0 0.0
2017-Apr-24 18:26N 60°20' E 028°02'0 0.0
2017-Apr-24 17:56N 60°20' E 028°02'0 0.0
2017-Apr-24 17:26N 60°20' E 028°02'0 0.0
2017-Apr-24 16:59N 60°20' E 028°02'0 0.0
2017-Apr-24 16:11N 60°20' E 028°02'0 0.0
2017-Apr-24 15:59N 60°20' E 028°02'0 0.0
2017-Apr-24 14:29N 60°20' E 028°02'0 0.0
2017-Apr-24 11:59N 60°20' E 028°02'0 0.0
2017-Apr-24 11:29N 60°20' E 028°02'0 0.0
2017-Apr-23 23:29N 60°20' E 028°02'0 0.0
2017-Apr-23 22:26N 60°20' E 028°02'0 0.0
2017-Apr-23 20:47N 60°19' E 028°02'0 0.1
2017-Apr-23 20:29N 60°20' E 028°02'1 0.1
2017-Apr-23 09:40N 60°21' E 028°01'5 5.6
2017-Apr-23 08:49N 60°17' E 027°55'310.3
2017-Apr-23 08:30N 60°14' E 027°51'4 8.1
2017-Apr-23 08:00N 60°11' E 027°47'611.1
2017-Apr-23 07:30N 60°08' E 027°37'712.9
2017-Apr-23 06:59N 60°05' E 027°26'612.9
2017-Apr-23 06:30N 60°01' E 027°15'1012.2
2017-Apr-23 05:38N 59°58' E 026°55'213.0
2017-Apr-23 05:28N 59°59' E 026°50'612.8
2017-Apr-23 05:00N 59°59' E 026°38'713.2
2017-Apr-23 04:30N 59°58' E 026°26'7112.9
2017-Apr-22 22:58N 59°41' E 024°08'612.7
2017-Apr-22 22:30N 59°39' E 023°56'612.7
2017-Apr-22 22:00N 59°37' E 023°45'612.9
2017-Apr-22 21:30N 59°35' E 023°32'612.8
2017-Apr-22 21:00N 59°33' E 023°20'612.6
2017-Apr-22 20:30N 59°30' E 023°09'34411.0
2017-Apr-21 13:12N 55°35' E 015°21'312.3
2017-Apr-21 12:55N 55°34' E 015°15'512.4
2017-Apr-21 12:30N 55°32' E 015°07'611.8
2017-Apr-21 12:00N 55°29' E 014°58'611.6
2017-Apr-21 11:30N 55°26' E 014°48'611.6
2017-Apr-21 11:00N 55°24' E 014°39'611.3
2017-Apr-21 10:30N 55°19' E 014°33'611.5
2017-Apr-21 10:00N 55°15' E 014°27'611.7
2017-Apr-21 09:30N 55°10' E 014°21'611.6
2017-Apr-21 09:00N 55°06' E 014°14'611.4
2017-Apr-21 08:30N 55°01' E 014°08'611.2
2017-Apr-21 08:00N 54°59' E 013°59'612.6
2017-Apr-21 07:30N 54°57' E 013°48'3013.3
2017-Apr-21 05:17N 54°48' E 012°60'413.7
2017-Apr-21 05:00N 54°46' E 012°54'713.6
2017-Apr-21 04:30N 54°44' E 012°43'713.4
2017-Apr-21 04:00N 54°41' E 012°32'713.6
2017-Apr-21 03:30N 54°37' E 012°23'811.0
2017-Apr-21 02:47N 54°31' E 012°15'312.7
2017-Apr-21 02:30N 54°27' E 012°12'612.5
2017-Apr-21 02:00N 54°25' E 012°03'2013.5
2017-Apr-21 00:30N 54°30' E 011°29'714.1
2017-Apr-21 00:00N 54°33' E 011°18'713.7
2017-Apr-20 23:30N 54°36' E 011°08'713.8
2017-Apr-20 23:00N 54°40' E 010°58'612.6
2017-Apr-20 22:30N 54°45' E 010°51'713.6
2017-Apr-20 22:00N 54°52' E 010°52'612.8
2017-Apr-20 21:30N 54°57' E 010°57'612.3
2017-Apr-20 21:00N 55°03' E 011°02'612.9
2017-Apr-20 20:30N 55°09' E 011°03'124 9.9
2017-Apr-20 07:59N 57°12' E 011°35'612.3
2017-Apr-20 07:30N 57°18' E 011°32'612.9
2017-Apr-20 07:00N 57°24' E 011°27'612.4
2017-Apr-20 06:30N 57°29' E 011°21'713.1
2017-Apr-20 06:00N 57°34' E 011°12'613.1
2017-Apr-20 05:30N 57°38' E 011°03'611.9
2017-Apr-20 05:00N 57°42' E 010°55'713.2
2017-Apr-20 04:30N 57°47' E 010°46'714.3
2017-Apr-20 03:59N 57°47' E 010°32'41312.4
2017-Apr-18 18:39N 52°23' E 003°06'213.3
2017-Apr-18 18:30N 52°22' E 003°08'713.4
2017-Apr-18 17:59N 52°17' E 003°17'713.1
2017-Apr-18 17:29N 52°13' E 003°25'713.1
2017-Apr-18 16:59N 52°09' E 003°33'613.6
2017-Apr-18 16:30N 52°05' E 003°42'713.3
2017-Apr-18 16:00N 52°02' E 003°51'5 9.0
2017-Apr-18 15:30N 52°01' E 003°59'612.9
2017-Apr-18 15:01N 51°58' E 004°07'3 7.0
2017-Apr-18 14:30N 51°56' E 004°12'1 0.3
2017-Apr-18 10:58N 51°55' E 004°13'0 0.0
2017-Apr-18 10:25N 51°55' E 004°13'0 0.0
2017-Apr-18 09:58N 51°55' E 004°13'0 0.0
2017-Apr-18 09:28N 51°55' E 004°13'0 0.0
2017-Apr-18 08:58N 51°55' E 004°13'0 0.0
2017-Apr-18 08:28N 51°55' E 004°13'0 0.0
2017-Apr-18 07:58N 51°55' E 004°13'0 0.0
2017-Apr-18 07:28N 51°55' E 004°13'0 0.0
2017-Apr-18 06:58N 51°55' E 004°13'0 0.0
2017-Apr-18 06:28N 51°55' E 004°13'0 0.0
2017-Apr-18 05:58N 51°55' E 004°13'0 0.0
2017-Apr-18 05:25N 51°55' E 004°13'0 0.0
2017-Apr-18 04:58N 51°55' E 004°13'0 0.0
2017-Apr-18 04:28N 51°55' E 004°13'0 0.0
2017-Apr-18 03:52N 51°55' E 004°13'0 0.0
2017-Apr-18 03:31N 51°55' E 004°13'0 0.0
2017-Apr-18 02:58N 51°55' E 004°13'0 0.0
2017-Apr-18 02:31N 51°55' E 004°13'0 0.0
2017-Apr-18 02:01N 51°55' E 004°13'0 0.0
2017-Apr-18 01:25N 51°55' E 004°13'0 0.0
2017-Apr-18 00:55N 51°55' E 004°13'0 0.0
2017-Apr-18 00:25N 51°55' E 004°13'0 0.0
2017-Apr-17 23:34N 51°55' E 004°13'0 0.0
2017-Apr-17 23:28N 51°55' E 004°13'0 0.0
2017-Apr-17 22:58N 51°55' E 004°13'0 0.0
2017-Apr-17 22:25N 51°55' E 004°13'0 0.0
2017-Apr-17 21:58N 51°55' E 004°13'0 0.0
2017-Apr-17 21:28N 51°55' E 004°13'0 0.0
2017-Apr-17 20:58N 51°55' E 004°13'0 0.0
2017-Apr-17 20:31N 51°55' E 004°13'0 0.0
2017-Apr-17 20:01N 51°55' E 004°13'0 0.0
2017-Apr-17 19:31N 51°55' E 004°13'0 0.0
2017-Apr-17 19:01N 51°55' E 004°13'0 0.0
2017-Apr-17 18:28N 51°55' E 004°13'0 0.0
2017-Apr-17 17:58N 51°55' E 004°13'0 0.0
2017-Apr-17 17:30N 51°55' E 004°13'0 0.0
2017-Apr-17 17:01N 51°55' E 004°13'0 0.0
2017-Apr-17 16:31N 51°55' E 004°13'0 0.0
2017-Apr-17 16:01N 51°55' E 004°13'0 0.0
2017-Apr-17 15:31N 51°55' E 004°13'0 0.0
2017-Apr-17 15:01N 51°55' E 004°13'0 0.0
2017-Apr-17 14:31N 51°55' E 004°13'0 0.0
2017-Apr-17 13:31N 51°55' E 004°13'0 0.0
2017-Apr-17 13:01N 51°55' E 004°13'0 0.0
2017-Apr-17 12:31N 51°55' E 004°13'0 0.0
2017-Apr-17 12:01N 51°55' E 004°13'0 0.0
2017-Apr-17 11:31N 51°55' E 004°13'0 0.0
2017-Apr-17 11:01N 51°55' E 004°13'0 0.0
2017-Apr-17 10:31N 51°55' E 004°13'0 0.0
2017-Apr-17 10:00N 51°55' E 004°13'0 0.0
2017-Apr-17 09:31N 51°55' E 004°13'0 0.0
2017-Apr-17 09:01N 51°55' E 004°13'0 0.0
2017-Apr-17 08:30N 51°55' E 004°13'0 0.0
2017-Apr-17 08:01N 51°55' E 004°13'0 0.0
2017-Apr-17 07:31N 51°55' E 004°13'0 0.0
2017-Apr-17 07:00N 51°55' E 004°13'0 0.0
2017-Apr-17 06:31N 51°55' E 004°13'0 0.0
2017-Apr-17 06:01N 51°55' E 004°13'0 0.0
2017-Apr-17 05:31N 51°55' E 004°13'0 0.0
2017-Apr-17 05:01N 51°55' E 004°13'0 0.0
2017-Apr-17 04:31N 51°55' E 004°13'0 0.0
2017-Apr-17 04:01N 51°55' E 004°13'0 0.0
2017-Apr-17 03:31N 51°55' E 004°13'0 0.0
2017-Apr-17 03:01N 51°55' E 004°13'0 0.0
2017-Apr-17 02:30N 51°55' E 004°13'0 0.0
2017-Apr-17 02:01N 51°55' E 004°13'0 0.0
2017-Apr-17 01:31N 51°55' E 004°13'0 0.0
2017-Apr-17 01:01N 51°55' E 004°13'0 0.0
2017-Apr-17 00:31N 51°55' E 004°13'0 0.0
2017-Apr-17 00:01N 51°55' E 004°13'0 0.0
2017-Apr-16 23:31N 51°55' E 004°13'0 0.0
2017-Apr-16 23:01N 51°55' E 004°13'0 0.0
2017-Apr-16 22:31N 51°55' E 004°13'0 0.0
2017-Apr-16 22:01N 51°55' E 004°13'0 0.0
2017-Apr-16 21:30N 51°55' E 004°13'0 0.0
2017-Apr-16 21:01N 51°55' E 004°13'0 0.0
2017-Apr-16 20:31N 51°55' E 004°13'0 0.0
2017-Apr-16 20:01N 51°55' E 004°13'0 0.0
2017-Apr-16 19:31N 51°55' E 004°13'0 0.0
2017-Apr-16 19:01N 51°55' E 004°13'0 0.0
2017-Apr-16 18:31N 51°55' E 004°13'0 0.0
2017-Apr-16 18:01N 51°55' E 004°13'0 0.0
2017-Apr-16 17:31N 51°55' E 004°13'0 0.0
2017-Apr-16 17:01N 51°55' E 004°13'1 1.7
2017-Apr-16 16:31N 51°56' E 004°12'3 6.8
2017-Apr-16 16:01N 51°58' E 004°08'611.4
2017-Apr-16 15:30N 52°00' E 003°59'510.9
2017-Apr-16 15:01N 52°01' E 003°50'5 9.5
2017-Apr-16 14:31N 51°59' E 003°43'9 0.5
2017-Apr-15 20:50N 51°55' E 003°30'0 0.1
2017-Apr-15 20:29N 51°55' E 003°30'0 0.2
2017-Apr-15 19:35N 51°55' E 003°30'  
Track history (hours):
 
Tides and Currents Weather Stations Pressure Air Temp Water Temp Dewpoint Dewpoint Depression Visibility Wind Speed Wind Dir Waves Ship Positions

Promitheas

Last reported at 2017-Apr-25 05:44 UTC. Time now 2017-Apr-26 04:09 UTC.
Position N 60°20' E 028°02'.

Length 249 m; draft 8.8 m.

Type: Tanker. MMSI: 240547000.

Date/timePositionNaut miles runAvg speedWind from/ knotsBaromVisibWave heightAir tempDewpointWater temp
2017-Apr-25 05:44N 60°20' E 028°02'0 0.0
2017-Apr-25 05:14N 60°20' E 028°02'0 0.0
2017-Apr-25 04:59N 60°20' E 028°02'0 0.0
2017-Apr-25 04:29N 60°20' E 028°02'0 0.0
2017-Apr-25 03:59N 60°20' E 028°02'0 0.0
2017-Apr-25 03:29N 60°20' E 028°02'0 0.0
2017-Apr-25 02:59N 60°20' E 028°02'0 0.0
2017-Apr-25 02:02N 60°20' E 028°02'0 0.0
2017-Apr-25 01:59N 60°20' E 028°02'0 0.0
2017-Apr-25 01:20N 60°20' E 028°02'0 0.0
2017-Apr-25 00:59N 60°20' E 028°02'0 0.0
2017-Apr-25 00:20N 60°20' E 028°02'0 0.0
2017-Apr-24 21:53N 60°20' E 028°02'0 0.1
2017-Apr-24 21:08N 60°20' E 028°02'0 0.0
2017-Apr-24 20:50N 60°20' E 028°02'0 0.0
2017-Apr-24 20:23N 60°20' E 028°02'0 0.0
2017-Apr-24 19:50N 60°20' E 028°02'0 0.0
2017-Apr-24 19:26N 60°20' E 028°02'0 0.0
2017-Apr-24 18:56N 60°20' E 028°02'0 0.0
2017-Apr-24 18:26N 60°20' E 028°02'0 0.0
2017-Apr-24 17:56N 60°20' E 028°02'0 0.0
2017-Apr-24 17:26N 60°20' E 028°02'0 0.0
2017-Apr-24 16:59N 60°20' E 028°02'0 0.0
2017-Apr-24 16:11N 60°20' E 028°02'0 0.0
2017-Apr-24 15:59N 60°20' E 028°02'0 0.0
2017-Apr-24 14:29N 60°20' E 028°02'0 0.0
2017-Apr-24 11:59N 60°20' E 028°02'0 0.0
2017-Apr-24 11:29N 60°20' E 028°02'0 0.0
2017-Apr-23 23:29N 60°20' E 028°02'0 0.0
2017-Apr-23 22:26N 60°20' E 028°02'0 0.0
2017-Apr-23 20:47N 60°19' E 028°02'0 0.1
2017-Apr-23 20:29N 60°20' E 028°02'1 0.1
2017-Apr-23 09:40N 60°21' E 028°01'5 5.6
2017-Apr-23 08:49N 60°17' E 027°55'310.3
2017-Apr-23 08:30N 60°14' E 027°51'4 8.1
2017-Apr-23 08:00N 60°11' E 027°47'611.1
2017-Apr-23 07:30N 60°08' E 027°37'712.9
2017-Apr-23 06:59N 60°05' E 027°26'612.9
2017-Apr-23 06:30N 60°01' E 027°15'1012.2
2017-Apr-23 05:38N 59°58' E 026°55'213.0
2017-Apr-23 05:28N 59°59' E 026°50'612.8
2017-Apr-23 05:00N 59°59' E 026°38'713.2
2017-Apr-23 04:30N 59°58' E 026°26'7112.9
2017-Apr-22 22:58N 59°41' E 024°08'612.7
2017-Apr-22 22:30N 59°39' E 023°56'612.7
2017-Apr-22 22:00N 59°37' E 023°45'612.9
2017-Apr-22 21:30N 59°35' E 023°32'612.8
2017-Apr-22 21:00N 59°33' E 023°20'612.6
2017-Apr-22 20:30N 59°30' E 023°09'34411.0
2017-Apr-21 13:12N 55°35' E 015°21'312.3
2017-Apr-21 12:55N 55°34' E 015°15'512.4
2017-Apr-21 12:30N 55°32' E 015°07'611.8
2017-Apr-21 12:00N 55°29' E 014°58'611.6
2017-Apr-21 11:30N 55°26' E 014°48'611.6
2017-Apr-21 11:00N 55°24' E 014°39'611.3
2017-Apr-21 10:30N 55°19' E 014°33'611.5
2017-Apr-21 10:00N 55°15' E 014°27'611.7
2017-Apr-21 09:30N 55°10' E 014°21'611.6
2017-Apr-21 09:00N 55°06' E 014°14'611.4
2017-Apr-21 08:30N 55°01' E 014°08'611.2
2017-Apr-21 08:00N 54°59' E 013°59'612.6
2017-Apr-21 07:30N 54°57' E 013°48'3013.3
2017-Apr-21 05:17N 54°48' E 012°60'413.7
2017-Apr-21 05:00N 54°46' E 012°54'713.6
2017-Apr-21 04:30N 54°44' E 012°43'713.4
2017-Apr-21 04:00N 54°41' E 012°32'713.6
2017-Apr-21 03:30N 54°37' E 012°23'811.0
2017-Apr-21 02:47N 54°31' E 012°15'312.7
2017-Apr-21 02:30N 54°27' E 012°12'612.5
2017-Apr-21 02:00N 54°25' E 012°03'2013.5
2017-Apr-21 00:30N 54°30' E 011°29'714.1
2017-Apr-21 00:00N 54°33' E 011°18'713.7
2017-Apr-20 23:30N 54°36' E 011°08'713.8
2017-Apr-20 23:00N 54°40' E 010°58'612.6
2017-Apr-20 22:30N 54°45' E 010°51'713.6
2017-Apr-20 22:00N 54°52' E 010°52'612.8
2017-Apr-20 21:30N 54°57' E 010°57'612.3
2017-Apr-20 21:00N 55°03' E 011°02'612.9
2017-Apr-20 20:30N 55°09' E 011°03'124 9.9
2017-Apr-20 07:59N 57°12' E 011°35'612.3
2017-Apr-20 07:30N 57°18' E 011°32'612.9
2017-Apr-20 07:00N 57°24' E 011°27'612.4
2017-Apr-20 06:30N 57°29' E 011°21'713.1
2017-Apr-20 06:00N 57°34' E 011°12'613.1
2017-Apr-20 05:30N 57°38' E 011°03'611.9
2017-Apr-20 05:00N 57°42' E 010°55'713.2
2017-Apr-20 04:30N 57°47' E 010°46'714.3
2017-Apr-20 03:59N 57°47' E 010°32'41312.4
2017-Apr-18 18:39N 52°23' E 003°06'213.3
2017-Apr-18 18:30N 52°22' E 003°08'713.4
2017-Apr-18 17:59N 52°17' E 003°17'713.1
2017-Apr-18 17:29N 52°13' E 003°25'713.1
2017-Apr-18 16:59N 52°09' E 003°33'613.6
2017-Apr-18 16:30N 52°05' E 003°42'713.3
2017-Apr-18 16:00N 52°02' E 003°51'5 9.0
2017-Apr-18 15:30N 52°01' E 003°59'612.9
2017-Apr-18 15:01N 51°58' E 004°07'3 7.0
2017-Apr-18 14:30N 51°56' E 004°12'1 0.3
2017-Apr-18 10:58N 51°55' E 004°13'0 0.0
2017-Apr-18 10:25N 51°55' E 004°13'0 0.0
2017-Apr-18 09:58N 51°55' E 004°13'0 0.0
2017-Apr-18 09:28N 51°55' E 004°13'0 0.0
2017-Apr-18 08:58N 51°55' E 004°13'0 0.0
2017-Apr-18 08:28N 51°55' E 004°13'0 0.0
2017-Apr-18 07:58N 51°55' E 004°13'0 0.0
2017-Apr-18 07:28N 51°55' E 004°13'0 0.0
2017-Apr-18 06:58N 51°55' E 004°13'0 0.0
2017-Apr-18 06:28N 51°55' E 004°13'0 0.0
2017-Apr-18 05:58N 51°55' E 004°13'0 0.0
2017-Apr-18 05:25N 51°55' E 004°13'0 0.0
2017-Apr-18 04:58N 51°55' E 004°13'0 0.0
2017-Apr-18 04:28N 51°55' E 004°13'0 0.0
2017-Apr-18 03:52N 51°55' E 004°13'0 0.0
2017-Apr-18 03:31N 51°55' E 004°13'0 0.0
2017-Apr-18 02:58N 51°55' E 004°13'0 0.0
2017-Apr-18 02:31N 51°55' E 004°13'0 0.0
2017-Apr-18 02:01N 51°55' E 004°13'0 0.0
2017-Apr-18 01:25N 51°55' E 004°13'0 0.0
2017-Apr-18 00:55N 51°55' E 004°13'0 0.0
2017-Apr-18 00:25N 51°55' E 004°13'0 0.0
2017-Apr-17 23:34N 51°55' E 004°13'0 0.0
2017-Apr-17 23:28N 51°55' E 004°13'0 0.0
2017-Apr-17 22:58N 51°55' E 004°13'0 0.0
2017-Apr-17 22:25N 51°55' E 004°13'0 0.0
2017-Apr-17 21:58N 51°55' E 004°13'0 0.0
2017-Apr-17 21:28N 51°55' E 004°13'0 0.0
2017-Apr-17 20:58N 51°55' E 004°13'0 0.0
2017-Apr-17 20:31N 51°55' E 004°13'0 0.0
2017-Apr-17 20:01N 51°55' E 004°13'0 0.0
2017-Apr-17 19:31N 51°55' E 004°13'0 0.0
2017-Apr-17 19:01N 51°55' E 004°13'0 0.0
2017-Apr-17 18:28N 51°55' E 004°13'0 0.0
2017-Apr-17 17:58N 51°55' E 004°13'0 0.0
2017-Apr-17 17:30N 51°55' E 004°13'0 0.0
2017-Apr-17 17:01N 51°55' E 004°13'0 0.0
2017-Apr-17 16:31N 51°55' E 004°13'0 0.0
2017-Apr-17 16:01N 51°55' E 004°13'0 0.0
2017-Apr-17 15:31N 51°55' E 004°13'0 0.0
2017-Apr-17 15:01N 51°55' E 004°13'0 0.0
2017-Apr-17 14:31N 51°55' E 004°13'0 0.0
2017-Apr-17 13:31N 51°55' E 004°13'0 0.0
2017-Apr-17 13:01N 51°55' E 004°13'0 0.0
2017-Apr-17 12:31N 51°55' E 004°13'0 0.0
2017-Apr-17 12:01N 51°55' E 004°13'0 0.0
2017-Apr-17 11:31N 51°55' E 004°13'0 0.0
2017-Apr-17 11:01N 51°55' E 004°13'0 0.0
2017-Apr-17 10:31N 51°55' E 004°13'0 0.0
2017-Apr-17 10:00N 51°55' E 004°13'0 0.0
2017-Apr-17 09:31N 51°55' E 004°13'0 0.0
2017-Apr-17 09:01N 51°55' E 004°13'0 0.0
2017-Apr-17 08:30N 51°55' E 004°13'0 0.0
2017-Apr-17 08:01N 51°55' E 004°13'0 0.0
2017-Apr-17 07:31N 51°55' E 004°13'0 0.0
2017-Apr-17 07:00N 51°55' E 004°13'0 0.0
2017-Apr-17 06:31N 51°55' E 004°13'0 0.0
2017-Apr-17 06:01N 51°55' E 004°13'0 0.0
2017-Apr-17 05:31N 51°55' E 004°13'0 0.0
2017-Apr-17 05:01N 51°55' E 004°13'0 0.0
2017-Apr-17 04:31N 51°55' E 004°13'0 0.0
2017-Apr-17 04:01N 51°55' E 004°13'0 0.0
2017-Apr-17 03:31N 51°55' E 004°13'0 0.0
2017-Apr-17 03:01N 51°55' E 004°13'0 0.0
2017-Apr-17 02:30N 51°55' E 004°13'0 0.0
2017-Apr-17 02:01N 51°55' E 004°13'0 0.0
2017-Apr-17 01:31N 51°55' E 004°13'0 0.0
2017-Apr-17 01:01N 51°55' E 004°13'0 0.0
2017-Apr-17 00:31N 51°55' E 004°13'0 0.0
2017-Apr-17 00:01N 51°55' E 004°13'0 0.0
2017-Apr-16 23:31N 51°55' E 004°13'0 0.0
2017-Apr-16 23:01N 51°55' E 004°13'0 0.0
2017-Apr-16 22:31N 51°55' E 004°13'0 0.0
2017-Apr-16 22:01N 51°55' E 004°13'0 0.0
2017-Apr-16 21:30N 51°55' E 004°13'0 0.0
2017-Apr-16 21:01N 51°55' E 004°13'0 0.0
2017-Apr-16 20:31N 51°55' E 004°13'0 0.0
2017-Apr-16 20:01N 51°55' E 004°13'0 0.0
2017-Apr-16 19:31N 51°55' E 004°13'0 0.0
2017-Apr-16 19:01N 51°55' E 004°13'0 0.0
2017-Apr-16 18:31N 51°55' E 004°13'0 0.0
2017-Apr-16 18:01N 51°55' E 004°13'0 0.0
2017-Apr-16 17:31N 51°55' E 004°13'0 0.0
2017-Apr-16 17:01N 51°55' E 004°13'1 1.7
2017-Apr-16 16:31N 51°56' E 004°12'3 6.8
2017-Apr-16 16:01N 51°58' E 004°08'611.4
2017-Apr-16 15:30N 52°00' E 003°59'510.9
2017-Apr-16 15:01N 52°01' E 003°50'5 9.5
2017-Apr-16 14:31N 51°59' E 003°43'9 0.5
2017-Apr-15 20:50N 51°55' E 003°30'0 0.1
2017-Apr-15 20:29N 51°55' E 003°30'0 0.2
2017-Apr-15 19:35N 51°55' E 003°30'  

Dump ship's entire track history